createdAt,value
2018-04-22T00:00:46.383Z,10.20
2018-04-22T00:03:14.347Z,10.00
2018-04-22T00:05:41.846Z,10.00
2018-04-22T00:08:09.367Z,10.00
2018-04-22T00:10:36.859Z,9.90
2018-04-22T00:13:04.395Z,9.80
2018-04-22T00:15:31.904Z,9.80
2018-04-22T00:17:59.392Z,9.70
2018-04-22T00:20:26.891Z,9.70
2018-04-22T00:22:54.403Z,9.70
2018-04-22T00:25:21.899Z,9.70
2018-04-22T00:27:49.391Z,9.60
2018-04-22T00:30:17.485Z,9.50
2018-04-22T00:32:44.994Z,9.60
2018-04-22T00:35:12.484Z,9.50
2018-04-22T00:37:40.355Z,9.50
2018-04-22T00:40:07.854Z,9.50
2018-04-22T00:42:35.412Z,9.40
2018-04-22T00:45:02.936Z,9.40
2018-04-22T00:47:30.423Z,9.30
2018-04-22T00:49:57.924Z,9.30
2018-04-22T00:52:25.421Z,9.20
2018-04-22T00:54:52.913Z,9.20
2018-04-22T00:57:20.435Z,9.10
2018-04-22T00:59:47.910Z,9.10
2018-04-22T01:02:15.387Z,9.10
2018-04-22T01:04:42.865Z,9.00
2018-04-22T01:07:10.756Z,8.90
2018-04-22T01:09:38.223Z,8.90
2018-04-22T01:12:05.721Z,8.90
2018-04-22T01:14:33.191Z,8.90
2018-04-22T01:17:01.105Z,8.80
2018-04-22T01:19:28.593Z,8.80
2018-04-22T01:21:56.093Z,8.80
2018-04-22T01:24:23.977Z,8.70
2018-04-22T01:26:51.451Z,8.70
2018-04-22T01:29:18.962Z,8.70
2018-04-22T01:31:46.855Z,8.60
2018-04-22T01:34:14.390Z,8.60
2018-04-22T01:36:41.891Z,8.60
2018-04-22T01:39:09.402Z,8.60
2018-04-22T01:41:36.912Z,8.50
2018-04-22T01:44:04.395Z,8.50
2018-04-22T01:46:31.942Z,8.50
2018-04-22T01:48:59.446Z,8.40
2018-04-22T01:51:27.336Z,8.40
2018-04-22T01:53:54.825Z,8.40
2018-04-22T01:56:22.304Z,8.40
2018-04-22T01:58:49.783Z,8.30
2018-04-22T02:01:17.680Z,8.20
2018-04-22T02:03:45.349Z,8.20
2018-04-22T02:06:13.058Z,8.20
2018-04-22T02:08:40.867Z,8.20
2018-04-22T02:11:08.546Z,8.10
2018-04-22T02:13:36.152Z,8.10
2018-04-22T02:16:03.788Z,8.10
2018-04-22T02:18:31.927Z,8.00
2018-04-22T02:20:59.600Z,8.00
2018-04-22T02:23:27.304Z,8.00
2018-04-22T02:25:55.347Z,8.00
2018-04-22T02:28:23.045Z,8.00
2018-04-22T02:30:50.766Z,7.90
2018-04-22T02:33:18.696Z,7.90
2018-04-22T02:35:46.427Z,7.90
2018-04-22T02:38:14.483Z,7.80
2018-04-22T02:40:42.749Z,7.70
2018-04-22T02:43:10.789Z,7.70
2018-04-22T02:45:38.553Z,7.70
2018-04-22T02:48:06.310Z,7.70
2018-04-22T02:50:34.034Z,7.70
2018-04-22T02:53:01.769Z,7.70
2018-04-22T02:55:32.963Z,7.60
2018-04-22T02:58:00.803Z,7.60
2018-04-22T03:00:28.461Z,7.60
2018-04-22T03:02:56.814Z,7.60
2018-04-22T03:05:24.546Z,7.50
2018-04-22T03:07:52.027Z,7.50
2018-04-22T03:10:20.303Z,7.50
2018-04-22T03:12:48.787Z,7.50
2018-04-22T03:15:17.217Z,7.50
2018-04-22T03:17:45.931Z,7.40
2018-04-22T03:20:14.581Z,7.40
2018-04-22T03:22:43.076Z,7.40
2018-04-22T03:25:11.680Z,7.30
2018-04-22T03:27:39.780Z,7.30
2018-04-22T03:30:07.671Z,7.30
2018-04-22T03:32:35.379Z,7.30
2018-04-22T03:35:04.513Z,7.20
2018-04-22T03:37:32.714Z,7.20
2018-04-22T03:40:00.537Z,7.20
2018-04-22T03:42:28.218Z,7.20
2018-04-22T03:44:56.391Z,7.20
2018-04-22T03:47:24.314Z,7.20
2018-04-22T03:49:52.172Z,7.20
2018-04-22T03:52:20.051Z,7.10
2018-04-22T03:54:47.686Z,7.10
2018-04-22T03:57:15.308Z,7.10
2018-04-22T03:59:43.332Z,7.10
2018-04-22T04:02:10.977Z,7.10
2018-04-22T04:04:38.611Z,7.10
2018-04-22T04:07:06.129Z,7.10
2018-04-22T04:09:33.865Z,7.10
2018-04-22T04:12:01.583Z,7.10
2018-04-22T04:14:29.215Z,7.10
2018-04-22T04:16:56.905Z,7.10
2018-04-22T04:19:36.334Z,7.00
2018-04-22T04:22:15.722Z,7.00
2018-04-22T04:27:46.796Z,7.00
2018-04-22T04:30:14.323Z,7.00
2018-04-22T04:32:41.793Z,7.00
2018-04-22T04:35:09.299Z,7.00
2018-04-22T04:37:36.775Z,7.00
2018-04-22T04:40:04.661Z,7.00
2018-04-22T04:42:32.519Z,7.00
2018-04-22T04:45:00.405Z,7.10
2018-04-22T04:47:27.864Z,7.10
2018-04-22T04:49:55.340Z,7.20
2018-04-22T04:52:22.834Z,7.20
2018-04-22T04:54:50.319Z,7.30
2018-04-22T04:57:17.821Z,7.40
2018-04-22T04:59:45.301Z,7.40
2018-04-22T05:02:12.787Z,7.50
2018-04-22T05:04:40.691Z,7.70
2018-04-22T05:07:08.157Z,7.70
2018-04-22T05:09:35.617Z,7.90
2018-04-22T05:12:03.089Z,8.10
2018-04-22T05:14:30.577Z,8.20
2018-04-22T05:16:58.471Z,8.60
2018-04-22T05:19:25.947Z,8.60
2018-04-22T05:21:53.445Z,8.80
2018-04-22T05:24:20.955Z,9.00
2018-04-22T05:26:48.424Z,9.10
2018-04-22T05:29:15.895Z,9.20
2018-04-22T05:31:43.388Z,9.30
2018-04-22T05:34:11.274Z,9.50
2018-04-22T05:36:38.755Z,9.50
2018-04-22T05:39:06.231Z,9.50
2018-04-22T05:41:33.705Z,9.70
2018-04-22T05:44:01.188Z,9.80
2018-04-22T05:46:28.702Z,9.90
2018-04-22T05:48:56.207Z,10.00
2018-04-22T05:51:23.695Z,9.90
2018-04-22T05:53:51.206Z,9.90
2018-04-22T05:56:19.084Z,9.90
2018-04-22T05:58:46.942Z,9.90
2018-04-22T06:01:14.829Z,10.10
2018-04-22T06:03:42.333Z,10.10
2018-04-22T06:06:09.807Z,10.10
2018-04-22T06:08:37.289Z,10.20
2018-04-22T06:11:05.634Z,10.30
2018-04-22T06:13:33.169Z,10.30
2018-04-22T06:16:01.729Z,10.40
2018-04-22T06:18:29.212Z,10.40
2018-04-22T06:20:56.707Z,10.40
2018-04-22T06:23:24.201Z,10.40
2018-04-22T06:25:51.689Z,10.50
2018-04-22T06:28:19.181Z,10.60
2018-04-22T06:30:46.641Z,10.80
2018-04-22T06:33:14.516Z,11.20
2018-04-22T06:35:42.379Z,11.50
2018-04-22T06:38:10.244Z,11.70
2018-04-22T06:40:38.149Z,12.10
2018-04-22T06:43:05.634Z,12.10
2018-04-22T06:45:33.181Z,12.60
2018-04-22T06:48:00.680Z,12.70
2018-04-22T06:50:28.173Z,12.70
2018-04-22T06:52:55.658Z,12.60
2018-04-22T06:55:23.137Z,12.50
2018-04-22T06:57:50.629Z,12.50
2018-04-22T07:00:18.115Z,12.40
2018-04-22T07:02:45.621Z,12.40
2018-04-22T07:05:13.501Z,12.70
2018-04-22T07:07:40.993Z,12.80
2018-04-22T07:10:08.476Z,13.30
2018-04-22T07:12:35.947Z,14.00
2018-04-22T07:15:03.448Z,14.70
2018-04-22T07:17:30.937Z,15.10
2018-04-22T07:19:58.412Z,15.40
2018-04-22T07:22:25.884Z,15.60
2018-04-22T07:24:53.765Z,15.60
2018-04-22T07:27:21.248Z,15.60
2018-04-22T07:29:48.739Z,15.80
2018-04-22T07:32:16.230Z,16.30
2018-04-22T07:34:43.756Z,16.70
2018-04-22T07:37:11.243Z,17.20
2018-04-22T07:39:39.117Z,17.60
2018-04-22T07:42:06.599Z,17.60
2018-04-22T07:44:34.098Z,17.50
2018-04-22T07:47:01.581Z,17.20
2018-04-22T07:49:29.473Z,17.20
2018-04-22T07:51:56.937Z,17.20
2018-04-22T07:54:24.474Z,17.20
2018-04-22T07:56:52.074Z,17.50
2018-04-22T07:59:19.563Z,17.90
2018-04-22T08:01:47.098Z,18.10
2018-04-22T08:04:14.578Z,18.30
2018-04-22T08:06:42.104Z,18.80
2018-04-22T08:09:09.584Z,18.90
2018-04-22T08:11:37.068Z,18.90
2018-04-22T08:14:04.562Z,19.20
2018-04-22T08:16:32.035Z,19.50
2018-04-22T08:18:59.543Z,19.50
2018-04-22T08:21:27.067Z,20.10
2018-04-22T08:23:54.495Z,20.40
2018-04-22T08:26:21.980Z,20.90
2018-04-22T08:28:50.594Z,20.60
2018-04-22T08:31:18.507Z,20.50
2018-04-22T08:33:46.017Z,20.50
2018-04-22T08:36:13.902Z,21.20
2018-04-22T08:38:41.399Z,21.20
2018-04-22T08:41:08.884Z,21.40
2018-04-22T08:43:36.381Z,21.50
2018-04-22T08:46:03.861Z,21.80
2018-04-22T08:48:31.334Z,22.40
2018-04-22T08:50:58.809Z,22.90
2018-04-22T08:53:26.683Z,23.80
2018-04-22T08:55:54.580Z,23.90
2018-04-22T08:58:22.056Z,23.80
2018-04-22T09:00:49.535Z,23.90
2018-04-22T09:03:17.029Z,24.00
2018-04-22T09:05:44.891Z,24.20
2018-04-22T09:08:12.805Z,24.50
2018-04-22T09:10:40.270Z,24.50
2018-04-22T09:13:07.754Z,24.70
2018-04-22T09:15:35.281Z,24.90
2018-04-22T09:18:02.751Z,25.00
2018-04-22T09:20:30.223Z,25.40
2018-04-22T09:22:57.713Z,25.70
2018-04-22T09:25:25.211Z,26.10
2018-04-22T09:27:52.687Z,26.30
2018-04-22T09:30:20.155Z,25.60
2018-04-22T09:32:47.635Z,25.30
2018-04-22T09:35:15.515Z,26.00
2018-04-22T09:37:43.008Z,26.00
2018-04-22T09:40:10.502Z,25.70
2018-04-22T09:42:38.386Z,24.90
2018-04-22T09:45:05.860Z,24.90
2018-04-22T09:47:33.346Z,25.20
2018-04-22T09:50:00.850Z,25.40
2018-04-22T09:52:28.335Z,25.70
2018-04-22T09:54:55.809Z,26.00
2018-04-22T09:57:23.283Z,25.80
2018-04-22T09:59:50.794Z,25.40
2018-04-22T10:02:23.894Z,25.50
2018-04-22T10:04:51.463Z,25.40
2018-04-22T10:07:18.949Z,25.60
2018-04-22T10:09:46.423Z,26.10
2018-04-22T10:12:14.340Z,26.30
2018-04-22T10:14:41.798Z,26.30
2018-04-22T10:17:09.289Z,26.70
2018-04-22T10:19:36.770Z,26.60
2018-04-22T10:22:04.663Z,27.40
2018-04-22T10:24:32.141Z,27.40
2018-04-22T10:26:59.646Z,27.70
2018-04-22T10:29:27.155Z,28.20
2018-04-22T10:31:54.688Z,28.30
2018-04-22T10:34:22.167Z,28.80
2018-04-22T10:36:49.648Z,29.10
2018-04-22T10:39:17.135Z,29.60
2018-04-22T10:41:45.018Z,30.40
2018-04-22T10:44:12.498Z,30.40
2018-04-22T10:46:40.006Z,30.70
2018-04-22T10:49:07.907Z,29.70
2018-04-22T10:51:35.378Z,29.70
2018-04-22T10:54:02.934Z,29.70
2018-04-22T10:56:30.459Z,30.10
2018-04-22T10:59:02.548Z,29.60
2018-04-22T11:01:30.041Z,29.60
2018-04-22T11:03:57.521Z,28.80
2018-04-22T11:06:25.026Z,29.40
2018-04-22T11:08:52.513Z,29.80
2018-04-22T11:11:19.983Z,29.90
2018-04-22T11:13:47.474Z,29.50
2018-04-22T11:16:15.330Z,29.30
2018-04-22T11:18:43.226Z,29.90
2018-04-22T11:21:10.720Z,29.90
2018-04-22T11:23:38.214Z,30.30
2018-04-22T11:26:06.083Z,31.50
2018-04-22T11:28:33.967Z,31.90
2018-04-22T11:31:01.462Z,31.90
2018-04-22T11:33:28.922Z,31.90
2018-04-22T11:35:56.400Z,32.30
2018-04-22T11:38:23.890Z,32.00
2018-04-22T11:40:51.371Z,31.90
2018-04-22T11:43:18.853Z,31.10
2018-04-22T11:45:46.450Z,31.50
2018-04-22T11:48:14.350Z,32.00
2018-04-22T11:50:41.865Z,32.00
2018-04-22T11:53:09.751Z,31.90
2018-04-22T11:55:37.299Z,31.90
2018-04-22T11:58:04.759Z,31.30
2018-04-22T12:00:32.634Z,31.70
2018-04-22T12:03:00.123Z,31.80
2018-04-22T12:05:27.624Z,31.40
2018-04-22T12:07:55.125Z,30.80
2018-04-22T12:10:22.651Z,30.50
2018-04-22T12:12:50.519Z,30.10
2018-04-22T12:15:17.991Z,30.10
2018-04-22T12:17:45.474Z,30.00
2018-04-22T12:20:12.990Z,29.70
2018-04-22T12:22:40.945Z,29.90
2018-04-22T12:25:11.649Z,29.90
2018-04-22T12:27:39.268Z,30.30
2018-04-22T12:30:06.785Z,30.60
2018-04-22T12:32:34.274Z,30.80
2018-04-22T12:35:01.770Z,31.00
2018-04-22T12:37:29.252Z,31.20
2018-04-22T12:39:56.737Z,30.80
2018-04-22T12:42:25.188Z,30.70
2018-04-22T12:44:53.826Z,30.50
2018-04-22T12:47:21.334Z,30.10
2018-04-22T12:49:48.841Z,30.00
2018-04-22T12:52:16.326Z,30.00
2018-04-22T12:54:43.846Z,30.00
2018-04-22T12:57:11.338Z,30.10
2018-04-22T12:59:38.819Z,30.30
2018-04-22T13:02:06.326Z,30.60
2018-04-22T13:04:34.579Z,31.00
2018-04-22T13:07:02.455Z,31.60
2018-04-22T13:09:29.976Z,31.60
2018-04-22T13:11:57.463Z,31.40
2018-04-22T13:14:26.139Z,31.00
2018-04-22T13:16:54.049Z,31.10
2018-04-22T13:19:21.562Z,31.10
2018-04-22T13:21:49.460Z,30.90
2018-04-22T13:24:17.782Z,30.90
2018-04-22T13:26:45.263Z,31.00
2018-04-22T13:29:13.136Z,31.30
2018-04-22T13:31:41.049Z,31.20
2018-04-22T13:34:08.512Z,31.20
2018-04-22T13:36:36.018Z,31.50
2018-04-22T13:39:03.601Z,31.20
2018-04-22T13:41:33.768Z,31.30
2018-04-22T13:44:01.245Z,31.30
2018-04-22T13:46:29.933Z,31.90
2018-04-22T13:49:00.401Z,31.90
2018-04-22T13:51:27.920Z,31.90
2018-04-22T13:53:55.795Z,31.70
2018-04-22T13:56:23.291Z,31.70
2018-04-22T13:58:52.547Z,31.90
2018-04-22T14:01:20.041Z,32.00
2018-04-22T14:03:48.066Z,32.20
2018-04-22T14:06:15.943Z,32.10
2018-04-22T14:08:43.876Z,32.50
2018-04-22T14:11:12.015Z,32.50
2018-04-22T14:13:39.523Z,32.70
2018-04-22T14:16:07.001Z,33.40
2018-04-22T14:18:34.489Z,33.00
2018-04-22T14:21:01.976Z,33.20
2018-04-22T14:23:29.462Z,33.60
2018-04-22T14:25:57.359Z,32.70
2018-04-22T14:28:26.905Z,32.70
2018-04-22T14:30:54.397Z,32.70
2018-04-22T14:33:21.905Z,32.40
2018-04-22T14:35:49.375Z,31.90
2018-04-22T14:38:16.877Z,31.60
2018-04-22T14:40:44.367Z,31.30
2018-04-22T14:43:11.843Z,30.40
2018-04-22T14:45:53.674Z,30.10
2018-04-22T14:48:21.200Z,29.70
2018-04-22T14:50:48.717Z,29.40
2018-04-22T14:53:16.199Z,29.00
2018-04-22T14:55:43.681Z,28.60
2018-04-22T14:58:11.571Z,28.20
2018-04-22T15:00:39.443Z,28.20
2018-04-22T15:03:06.918Z,28.20
2018-04-22T15:05:34.414Z,28.00
2018-04-22T15:08:01.899Z,27.90
2018-04-22T15:10:29.783Z,27.70
2018-04-22T15:12:57.293Z,27.70
2018-04-22T15:15:24.770Z,27.60
2018-04-22T15:17:52.249Z,27.40
2018-04-22T15:20:20.116Z,26.90
2018-04-22T15:22:47.634Z,26.90
2018-04-22T15:25:15.118Z,26.70
2018-04-22T15:27:42.982Z,26.20
2018-04-22T15:30:10.866Z,26.10
2018-04-22T15:32:38.361Z,26.10
2018-04-22T15:35:05.880Z,26.00
2018-04-22T15:37:33.371Z,26.00
2018-04-22T15:40:00.859Z,25.90
2018-04-22T15:42:28.333Z,25.90
2018-04-22T15:45:03.919Z,25.70
2018-04-22T15:47:31.422Z,25.70
2018-04-22T15:49:58.905Z,25.70
2018-04-22T15:52:26.795Z,25.40
2018-04-22T15:54:54.303Z,25.40
2018-04-22T15:57:21.874Z,25.30
2018-04-22T15:59:49.762Z,24.80
2018-04-22T16:02:17.655Z,24.30
2018-04-22T16:04:45.141Z,24.30
2018-04-22T16:07:12.623Z,24.00
2018-04-22T16:09:40.501Z,23.50
2018-04-22T16:12:08.363Z,23.30
2018-04-22T16:14:36.296Z,23.30
2018-04-22T16:17:03.743Z,23.30
2018-04-22T16:19:31.222Z,23.30
2018-04-22T16:21:58.700Z,23.30
2018-04-22T16:24:26.582Z,23.20
2018-04-22T16:26:54.075Z,23.30
2018-04-22T16:29:21.541Z,23.40
2018-04-22T16:31:49.019Z,23.60
2018-04-22T16:34:16.487Z,23.80
2018-04-22T16:36:44.390Z,24.10
2018-04-22T16:39:11.869Z,24.10
2018-04-22T16:41:39.346Z,24.10
2018-04-22T16:44:06.887Z,24.00
2018-04-22T16:46:34.376Z,23.90
2018-04-22T16:49:01.853Z,23.80
2018-04-22T16:51:29.727Z,23.60
2018-04-22T16:53:57.237Z,23.60
2018-04-22T16:56:24.723Z,23.50
2018-04-22T16:58:52.619Z,23.30
2018-04-22T17:01:20.155Z,23.30
2018-04-22T17:03:47.581Z,23.20
2018-04-22T17:06:15.073Z,23.10
2018-04-22T17:08:42.980Z,23.00
2018-04-22T17:11:11.544Z,23.10
2018-04-22T17:13:39.076Z,23.00
2018-04-22T17:16:06.948Z,23.10
2018-04-22T17:18:34.454Z,23.10
2018-04-22T17:21:02.927Z,23.10
2018-04-22T17:23:30.444Z,23.10
2018-04-22T17:25:58.342Z,23.00
2018-04-22T17:28:25.814Z,23.00
2018-04-22T17:30:53.302Z,22.80
2018-04-22T17:33:20.781Z,22.70
2018-04-22T17:35:48.649Z,22.30
2018-04-22T17:38:16.137Z,22.30
2018-04-22T17:40:43.679Z,22.10
2018-04-22T17:43:11.372Z,21.90
2018-04-22T17:45:38.908Z,21.80
2018-04-22T17:48:06.424Z,21.80
2018-04-22T17:50:34.340Z,21.70
2018-04-22T17:53:01.916Z,21.70
2018-04-22T17:55:29.424Z,21.60
2018-04-22T17:57:57.321Z,21.40
2018-04-22T18:00:24.829Z,21.40
2018-04-22T18:02:52.748Z,21.10
2018-04-22T18:05:20.232Z,21.10
2018-04-22T18:07:47.758Z,20.90
2018-04-22T18:10:15.245Z,20.60
2018-04-22T18:12:42.751Z,20.40
2018-04-22T18:15:10.270Z,20.10
2018-04-22T18:17:37.791Z,19.90
2018-04-22T18:20:05.263Z,19.80
2018-04-22T18:22:32.743Z,19.70
2018-04-22T18:25:00.321Z,19.60
2018-04-22T18:27:27.774Z,19.50
2018-04-22T18:29:55.661Z,19.40
2018-04-22T18:32:23.153Z,19.40
2018-04-22T18:34:50.644Z,19.30
2018-04-22T18:37:18.137Z,19.30
2018-04-22T18:39:45.608Z,19.30
2018-04-22T18:42:13.107Z,19.30
2018-04-22T18:44:40.675Z,19.30
2018-04-22T18:47:09.034Z,19.30
2018-04-22T18:49:36.515Z,19.30
2018-04-22T18:52:04.461Z,19.30
2018-04-22T18:54:32.374Z,19.30
2018-04-22T18:56:59.859Z,19.30
2018-04-22T18:59:27.319Z,19.30
2018-04-22T19:01:54.793Z,19.30
2018-04-22T19:04:22.281Z,19.30
2018-04-22T19:06:50.147Z,19.30
2018-04-22T19:09:18.047Z,19.30
2018-04-22T19:11:45.530Z,19.30
2018-04-22T19:14:13.039Z,19.30
2018-04-22T19:16:40.924Z,19.30
2018-04-22T19:19:08.432Z,19.30
2018-04-22T19:21:35.899Z,19.30
2018-04-22T19:24:03.375Z,19.30
2018-04-22T19:26:31.282Z,19.30
2018-04-22T19:28:58.779Z,19.30
2018-04-22T19:31:26.385Z,19.30
2018-04-22T19:33:53.863Z,19.30
2018-04-22T19:36:21.361Z,19.20
2018-04-22T19:38:48.848Z,19.30
2018-04-22T19:41:16.334Z,19.30
2018-04-22T19:43:43.810Z,19.30
2018-04-22T19:46:11.300Z,19.40
2018-04-22T19:48:39.207Z,19.50
2018-04-22T19:51:06.682Z,19.50
2018-04-22T19:53:34.159Z,19.40
2018-04-22T19:56:01.715Z,19.30
2018-04-22T19:58:29.245Z,19.20
2018-04-22T20:00:56.807Z,19.20
2018-04-22T20:03:24.295Z,19.10
2018-04-22T20:05:52.056Z,19.10
2018-04-22T20:08:19.693Z,19.00
2018-04-22T20:10:47.183Z,19.00
2018-04-22T20:13:14.721Z,18.90
2018-04-22T20:15:42.191Z,18.90
2018-04-22T20:18:09.678Z,18.80
2018-04-22T20:20:37.161Z,18.70
2018-04-22T20:23:04.682Z,18.70
2018-04-22T20:25:32.560Z,18.60
2018-04-22T20:28:00.030Z,18.70
2018-04-22T20:30:27.527Z,18.60
2018-04-22T20:32:55.003Z,18.50
2018-04-22T20:35:22.879Z,18.30
2018-04-22T20:37:50.757Z,18.30
2018-04-22T20:40:18.275Z,18.30
2018-04-22T20:42:45.743Z,18.20
2018-04-22T20:45:13.271Z,18.20
2018-04-22T20:47:40.743Z,18.10
2018-04-22T20:50:08.253Z,18.10
2018-04-22T20:52:35.754Z,18.00
2018-04-22T20:55:03.230Z,17.90
2018-04-22T20:57:30.743Z,17.80
2018-04-22T20:59:58.235Z,17.80
2018-04-22T21:02:25.721Z,17.70
2018-04-22T21:04:53.628Z,17.50
2018-04-22T21:07:21.116Z,17.50
2018-04-22T21:09:48.614Z,17.50
2018-04-22T21:12:16.109Z,17.40
2018-04-22T21:14:43.607Z,17.30
2018-04-22T21:17:11.572Z,17.20
2018-04-22T21:19:39.097Z,17.20
2018-04-22T21:22:06.590Z,17.10
2018-04-22T21:24:34.546Z,17.00
2018-04-22T21:27:02.031Z,17.00
2018-04-22T21:29:29.958Z,16.90
2018-04-22T21:31:57.488Z,16.90
2018-04-22T21:34:24.964Z,16.80
2018-04-22T21:36:52.454Z,16.70
2018-04-22T21:39:20.349Z,16.60
2018-04-22T21:41:47.842Z,16.60
2018-04-22T21:44:15.409Z,16.50
2018-04-22T21:46:42.898Z,16.40
2018-04-22T21:49:10.775Z,16.30
2018-04-22T21:51:38.662Z,16.30
2018-04-22T21:54:06.141Z,16.30
2018-04-22T21:56:33.645Z,16.20
2018-04-22T21:59:01.528Z,16.10
2018-04-22T22:01:29.390Z,15.90
2018-04-22T22:03:57.263Z,15.80
2018-04-22T22:06:25.151Z,15.80
2018-04-22T22:08:52.614Z,15.80
2018-04-22T22:11:20.099Z,15.70
2018-04-22T22:13:47.605Z,15.70
2018-04-22T22:16:15.103Z,15.60
2018-04-22T22:18:42.594Z,15.60
2018-04-22T22:21:11.025Z,15.50
2018-04-22T22:23:38.534Z,15.50
2018-04-22T22:26:06.432Z,15.40
2018-04-22T22:28:33.904Z,15.40
2018-04-22T22:31:01.393Z,15.40
2018-04-22T22:33:28.866Z,15.30
2018-04-22T22:35:56.361Z,15.30
2018-04-22T22:38:23.859Z,15.20
2018-04-22T22:40:51.361Z,15.20
2018-04-22T22:43:18.866Z,15.20
2018-04-22T22:45:46.352Z,15.10
2018-04-22T22:48:13.857Z,15.10
2018-04-22T22:50:41.349Z,15.10
2018-04-22T22:53:08.878Z,15.00
2018-04-22T22:55:36.346Z,15.00
2018-04-22T22:58:03.834Z,15.00
2018-04-22T23:00:31.315Z,14.90
2018-04-22T23:02:59.179Z,14.80
2018-04-22T23:05:27.095Z,14.70
2018-04-22T23:07:54.566Z,14.80
2018-04-22T23:10:22.110Z,14.70
2018-04-22T23:12:49.602Z,14.70
2018-04-22T23:15:17.483Z,14.50
2018-04-22T23:17:45.370Z,14.50
2018-04-22T23:20:14.568Z,14.50
2018-04-22T23:22:42.053Z,14.50
2018-04-22T23:25:10.521Z,14.40
2018-04-22T23:27:38.017Z,14.40
2018-04-22T23:30:05.491Z,14.30
2018-04-22T23:32:35.157Z,14.30
2018-04-22T23:35:02.650Z,14.30
2018-04-22T23:37:30.127Z,14.20
2018-04-22T23:39:57.617Z,14.20
2018-04-22T23:42:25.126Z,14.10
2018-04-22T23:44:53.002Z,14.00
2018-04-22T23:47:20.889Z,14.00
2018-04-22T23:49:48.460Z,14.00
2018-04-22T23:52:16.020Z,14.00
2018-04-22T23:54:43.498Z,13.90
2018-04-22T23:57:11.009Z,13.90
2018-04-22T23:59:38.470Z,13.80
